Friday, March 06, 2015
21:37 UTC
  |  Log In   |  Register Free
Airport Search:

Modesto City-Co-Harry Sham Fld Airport
(KMOD)

FAA data valid effective March 05, 2015 - April 30, 2015 (unless otherwise noted).

 
 
 
 
 
 
 
 
 
 
 
 
 
 

Current Aviation Weather for Modesto City-Co-Harry Sham Fld Airport (KMOD)

The most recent METAR observation for KMOD was updated at: 2113
METAR Summary (Translated METAR)
KMOD
062053Z 31008KT 10SM CLR 21/04 A3022 RMK AO2 SLP233 T02110039 58025
KSCK
062055Z 28007KT 10SM CLR 21/05 A3022 RMK AO2 SLP233 T02060050 58024
(21 nm NW from KMOD)
KMER
062045Z VRB04KT 10SM SKC 22/07 A3022
(23.6 nm SE from KMOD)
TAF Summary (Translated TAF)
KSCK
(21 nm NW from KMOD)
061736Z 0618/0718 VRB04KT P6SM SKC TEMPO 0620/0624 32006KT
KMER
(23.6 nm SE from KMOD)
061720Z 0618/0718 34004KT P6SM SKC
  Airport Weather Conditions for KMOD

 Current Weather at MOD
70° F
Fair
Northwest winds at 9.2 mph
MOD NOAA Radar

Pressure: 30.22 in
Humidity: 32%
Wind: Northwest at 9.2 MPH (8 KT)
Dew Point: 39.0°F
Visibility: 10.00 mi


Airport Weather Forecast for KMOD

Translated METAR and TAF for KMOD
Translated METAR for KMOD (2137 UTC 06 March 2015)
found at http://aviationweather.gov/adds/metars/
 
METAR text: KMOD 062053Z 31008KT 10SM CLR 21/04 A3022 RMK AO2 SLP233 T02110039 58025
Conditions at: KMOD (MODESTO , CA, US) observed 2053 UTC 06 March 2015
Temperature: 21.1°C (70°F)
Dewpoint: 3.9°C (39°F) [RH = 32%]
Pressure (altimeter): 30.22 inches Hg (1023.5 mb)
[Sea-level pressure: 1023.3 mb]
Winds: from the NW (310 degrees) at 9 MPH (8 knots; 4.2 m/s)
Visibility: 10 or more miles (16+ km)
Ceiling: at least 12,000 feet AGL
Clouds: sky clear below 12,000 feet AGL
Weather: no significant weather observed at this time
Translated TAF for KMOD

There is no translated TAF available for this airport

Find All Airport Services Find A Hotel Find A Rental Car Find A Golf Course Find A Restaurant $100 Hamburger



FBO's on the Field
FBO Company Facility Photos Services Transportation Aviation Fuel Prices: Prices include tax
Catering Weather Repair Courtesy Rental Type 100LL JetA JetA+ MOGAS 8087
 
Sky Trek Aviation

This FBO has not yet been rated
FS:Avfuel
Last Updated: Feb-25
Login to update fuel prices
SS:
Contact Sky Trek AviationMore FBO Information
 
Add another FBO Facility Photos Catering Weather Repair Courtesy Rental Type 100LL JetA JetA+ MOGAS 8087
Services Transportation Aviation Fuel Prices: Prices include tax


model-print
model-print
model-print
model-print